createdAt,value
2023-04-07T00:01:40.711Z,39.59
2023-04-07T00:04:08.383Z,36.66
2023-04-07T00:06:35.353Z,37.38
2023-04-07T00:09:02.343Z,36.30
2023-04-07T00:11:29.200Z,38.19
2023-04-07T00:13:56.402Z,38.21
2023-04-07T00:16:23.506Z,36.78
2023-04-07T00:18:50.305Z,35.48
2023-04-07T00:21:17.163Z,38.99
2023-04-07T00:23:44.014Z,39.27
2023-04-07T00:26:10.817Z,38.76
2023-04-07T00:28:39.104Z,40.04
2023-04-07T00:31:06.018Z,37.46
2023-04-07T00:33:33.527Z,36.97
2023-04-07T00:36:00.492Z,39.50
2023-04-07T00:38:27.618Z,39.52
2023-04-07T00:40:59.526Z,38.89
2023-04-07T00:43:27.285Z,40.04
2023-04-07T00:45:54.488Z,38.75
2023-04-07T00:48:22.294Z,39.31
2023-04-07T00:50:49.332Z,39.50
2023-04-07T00:53:16.537Z,39.45
2023-04-07T00:55:43.540Z,39.09
2023-04-07T00:58:10.464Z,40.09
2023-04-07T01:00:45.722Z,36.93
2023-04-07T01:03:26.101Z,37.96
2023-04-07T01:05:58.174Z,37.74
2023-04-07T01:08:29.083Z,35.49
2023-04-07T01:11:17.709Z,36.61
2023-04-07T01:13:52.660Z,37.43
2023-04-07T01:16:51.164Z,37.29
2023-04-07T01:19:44.800Z,38.20
2023-04-07T01:22:15.573Z,35.53
2023-04-07T01:25:03.541Z,36.86
2023-04-07T01:28:04.472Z,36.93
2023-04-07T01:30:34.921Z,39.18
2023-04-07T01:33:04.672Z,36.15
2023-04-07T01:35:34.814Z,37.19
2023-04-07T01:38:03.908Z,36.40
2023-04-07T01:40:33.092Z,36.63
2023-04-07T01:43:01.653Z,36.36
2023-04-07T01:45:30.837Z,35.42
2023-04-07T01:47:58.186Z,37.21
2023-04-07T01:50:26.457Z,35.94
2023-04-07T01:52:54.205Z,35.84
2023-04-07T01:55:21.695Z,40.40
2023-04-07T01:58:05.381Z,37.40
2023-04-07T02:00:34.452Z,37.10
2023-04-07T02:03:24.111Z,36.05
2023-04-07T02:05:55.949Z,38.64
2023-04-07T02:08:31.157Z,39.98
2023-04-07T02:11:01.082Z,38.92
2023-04-07T02:13:34.294Z,37.91
2023-04-07T02:16:02.953Z,39.19
2023-04-07T02:18:32.461Z,39.46
2023-04-07T02:21:01.434Z,37.61
2023-04-07T02:23:28.583Z,36.72
2023-04-07T02:25:58.291Z,37.00
2023-04-07T02:28:25.106Z,37.96
2023-04-07T02:30:51.844Z,41.73
2023-04-07T02:33:18.640Z,38.82
2023-04-07T02:35:45.469Z,39.55
2023-04-07T02:38:12.241Z,39.58
2023-04-07T02:40:39.858Z,40.46
2023-04-07T02:43:06.672Z,38.30
2023-04-07T02:45:33.746Z,39.88
2023-04-07T02:48:00.626Z,38.57
2023-04-07T02:50:29.226Z,39.14
2023-04-07T02:52:56.892Z,38.22
2023-04-07T02:55:24.626Z,38.41
2023-04-07T02:57:51.763Z,37.90
2023-04-07T03:00:32.383Z,40.47
2023-04-07T03:03:05.005Z,36.62
2023-04-07T03:05:35.655Z,38.43
2023-04-07T03:08:03.879Z,36.86
2023-04-07T03:10:31.112Z,36.47
2023-04-07T03:12:58.263Z,37.88
2023-04-07T03:15:25.532Z,35.60
2023-04-07T03:17:52.548Z,37.58
2023-04-07T03:20:20.453Z,37.35
2023-04-07T03:22:47.607Z,38.50
2023-04-07T03:25:27.517Z,37.42
2023-04-07T03:27:55.596Z,38.82
2023-04-07T03:30:25.570Z,37.27
2023-04-07T03:32:52.407Z,37.87
2023-04-07T03:35:19.174Z,36.88
2023-04-07T03:37:45.974Z,37.76
2023-04-07T03:40:16.790Z,36.75
2023-04-07T03:42:46.690Z,37.14
2023-04-07T03:45:14.347Z,38.09
2023-04-07T03:47:46.500Z,37.82
2023-04-07T03:50:14.382Z,36.20
2023-04-07T03:52:51.362Z,37.03
2023-04-07T03:55:30.436Z,37.31
2023-04-07T03:58:02.204Z,39.27
2023-04-07T04:00:33.610Z,37.02
2023-04-07T04:03:07.843Z,37.84
2023-04-07T04:05:38.668Z,36.08
2023-04-07T04:08:06.983Z,39.41
2023-04-07T04:10:36.629Z,37.32
2023-04-07T04:13:06.860Z,36.74
2023-04-07T04:15:34.504Z,36.99
2023-04-07T04:18:03.413Z,36.66
2023-04-07T04:20:31.419Z,37.42
2023-04-07T04:22:58.210Z,36.24
2023-04-07T04:25:25.912Z,38.49
2023-04-07T04:27:56.054Z,40.15
2023-04-07T04:30:25.837Z,38.41
2023-04-07T04:32:57.260Z,36.70
2023-04-07T04:35:39.301Z,36.27
2023-04-07T04:38:16.556Z,38.25
2023-04-07T04:40:49.846Z,38.01
2023-04-07T04:43:19.731Z,38.24
2023-04-07T04:45:47.391Z,40.63
2023-04-07T04:48:16.239Z,37.56
2023-04-07T04:50:43.973Z,40.80
2023-04-07T04:53:13.152Z,38.84
2023-04-07T04:55:52.154Z,37.81
2023-04-07T04:58:23.540Z,39.54
2023-04-07T05:00:59.884Z,37.98
2023-04-07T05:03:50.516Z,39.66
2023-04-07T05:06:22.840Z,38.18
2023-04-07T05:08:51.601Z,39.70
2023-04-07T05:11:22.433Z,36.59
2023-04-07T05:13:52.455Z,35.60
2023-04-07T05:16:19.548Z,37.12
2023-04-07T05:18:47.020Z,38.86
2023-04-07T05:21:14.866Z,38.00
2023-04-07T05:23:41.746Z,38.74
2023-04-07T05:26:11.481Z,37.35
2023-04-07T05:28:38.844Z,36.00
2023-04-07T05:31:13.401Z,37.18
2023-04-07T05:33:41.202Z,41.16
2023-04-07T05:36:08.071Z,38.58
2023-04-07T05:38:35.503Z,40.21
2023-04-07T05:41:10.246Z,36.92
2023-04-07T05:43:37.079Z,42.45
2023-04-07T05:46:04.613Z,40.91
2023-04-07T05:48:33.736Z,45.63
2023-04-07T05:51:00.772Z,42.95
2023-04-07T05:53:27.661Z,41.16
2023-04-07T05:55:55.404Z,37.92
2023-04-07T05:58:35.487Z,40.81
2023-04-07T06:01:03.085Z,37.10
2023-04-07T06:03:30.647Z,34.65
2023-04-07T06:06:16.273Z,37.34
2023-04-07T06:08:43.213Z,41.20
2023-04-07T06:11:10.489Z,39.58
2023-04-07T06:13:37.262Z,38.73
2023-04-07T06:16:04.679Z,38.34
2023-04-07T06:18:31.592Z,35.93
2023-04-07T06:20:59.119Z,37.30
2023-04-07T06:23:26.654Z,38.07
2023-04-07T06:25:53.579Z,38.69
2023-04-07T06:28:22.861Z,40.22
2023-04-07T06:30:49.758Z,38.79
2023-04-07T06:33:17.012Z,40.68
2023-04-07T06:35:44.003Z,38.20
2023-04-07T06:38:12.263Z,40.11
2023-04-07T06:40:39.055Z,37.54
2023-04-07T06:43:06.373Z,38.75
2023-04-07T06:45:59.264Z,40.39
2023-04-07T06:48:26.882Z,40.79
2023-04-07T06:50:53.699Z,40.72
2023-04-07T06:53:21.014Z,37.02
2023-04-07T06:55:47.781Z,39.71
2023-04-07T06:58:14.550Z,39.10
2023-04-07T07:00:42.237Z,37.09
2023-04-07T07:03:09.230Z,35.88
2023-04-07T07:05:36.527Z,37.71
2023-04-07T07:08:03.430Z,38.27
2023-04-07T07:10:30.463Z,38.08
2023-04-07T07:12:57.450Z,38.56
2023-04-07T07:15:24.355Z,38.52
2023-04-07T07:17:51.254Z,38.25
2023-04-07T07:20:18.251Z,38.72
2023-04-07T07:22:45.022Z,37.81
2023-04-07T07:25:12.694Z,36.14
2023-04-07T07:27:39.528Z,35.98
2023-04-07T07:30:06.943Z,35.14
2023-04-07T07:32:33.754Z,33.63
2023-04-07T07:35:00.747Z,33.41
2023-04-07T07:37:28.173Z,34.64
2023-04-07T07:39:56.316Z,34.68
2023-04-07T07:42:23.175Z,33.07
2023-04-07T07:44:50.137Z,32.54
2023-04-07T07:47:16.959Z,33.45
2023-04-07T07:49:43.768Z,31.85
2023-04-07T07:52:11.359Z,34.60
2023-04-07T07:54:38.240Z,34.21
2023-04-07T07:57:06.199Z,32.09
2023-04-07T07:59:33.377Z,31.64
2023-04-07T08:02:00.340Z,30.97
2023-04-07T08:04:28.022Z,31.33
2023-04-07T08:06:55.165Z,31.80
2023-04-07T08:09:22.266Z,33.31
2023-04-07T08:11:49.016Z,33.98
2023-04-07T08:14:16.256Z,33.01
2023-04-07T08:16:43.767Z,32.21
2023-04-07T08:19:11.684Z,30.20
2023-04-07T08:21:38.485Z,31.21
2023-04-07T08:24:06.393Z,30.62
2023-04-07T08:26:33.468Z,31.95
2023-04-07T08:29:00.342Z,29.72
2023-04-07T08:31:28.094Z,32.44
2023-04-07T08:33:58.347Z,31.05
2023-04-07T08:36:27.287Z,31.77
2023-04-07T08:38:54.456Z,33.88
2023-04-07T08:41:33.492Z,34.42
2023-04-07T08:44:02.037Z,30.58
2023-04-07T08:46:29.971Z,31.31
2023-04-07T08:48:58.258Z,32.03
2023-04-07T08:51:33.298Z,30.61
2023-04-07T08:54:10.716Z,28.57
2023-04-07T08:56:43.023Z,29.76
2023-04-07T08:59:12.849Z,31.30
2023-04-07T09:01:40.704Z,31.08
2023-04-07T09:04:09.082Z,31.86
2023-04-07T09:06:37.151Z,32.48
2023-04-07T09:09:08.243Z,29.26
2023-04-07T09:11:41.283Z,30.06
2023-04-07T09:14:08.846Z,29.52
2023-04-07T09:16:36.274Z,29.42
2023-04-07T09:19:03.410Z,29.79
2023-04-07T09:21:50.677Z,29.22
2023-04-07T09:24:29.551Z,29.46
2023-04-07T09:27:10.300Z,30.79
2023-04-07T09:29:37.904Z,27.45
2023-04-07T09:32:04.822Z,27.97
2023-04-07T09:34:41.040Z,27.82
2023-04-07T09:37:12.387Z,28.66
2023-04-07T09:39:53.905Z,26.80
2023-04-07T09:42:21.583Z,26.78
2023-04-07T09:44:48.425Z,25.50
2023-04-07T09:47:16.152Z,27.08
2023-04-07T09:49:53.995Z,26.91
2023-04-07T09:52:25.551Z,29.54
2023-04-07T09:54:53.321Z,26.56
2023-04-07T09:57:21.519Z,27.17
2023-04-07T09:59:49.085Z,25.51
2023-04-07T10:02:16.345Z,24.29
2023-04-07T10:04:44.208Z,26.02
2023-04-07T10:07:11.235Z,23.60
2023-04-07T10:09:37.977Z,23.81
2023-04-07T10:12:06.807Z,21.08
2023-04-07T10:14:35.583Z,22.61
2023-04-07T10:17:04.234Z,22.34
2023-04-07T10:19:33.794Z,24.14
2023-04-07T10:22:03.199Z,22.37
2023-04-07T10:24:54.688Z,19.83
2023-04-07T10:27:29.488Z,23.84
2023-04-07T10:29:59.149Z,26.13
2023-04-07T10:32:26.253Z,24.73
2023-04-07T10:34:58.211Z,25.06
2023-04-07T10:37:26.238Z,24.14
2023-04-07T10:40:18.799Z,26.08
2023-04-07T10:42:49.176Z,20.86
2023-04-07T10:45:16.534Z,21.01
2023-04-07T10:48:10.250Z,20.00
2023-04-07T10:50:37.709Z,24.78
2023-04-07T10:53:13.196Z,19.21
2023-04-07T10:55:41.991Z,16.69
2023-04-07T10:58:19.276Z,15.57
2023-04-07T11:01:06.325Z,16.32
2023-04-07T11:03:52.773Z,15.87
2023-04-07T11:06:19.620Z,16.59
2023-04-07T11:08:49.464Z,21.39
2023-04-07T11:11:19.648Z,21.03
2023-04-07T11:13:51.656Z,21.88
2023-04-07T11:16:20.255Z,19.29
2023-04-07T11:18:48.274Z,20.45
2023-04-07T11:21:19.414Z,20.24
2023-04-07T11:23:48.675Z,19.12
2023-04-07T11:26:16.542Z,21.50
2023-04-07T11:28:54.159Z,21.93
2023-04-07T11:31:31.439Z,20.28
2023-04-07T11:34:03.684Z,19.38
2023-04-07T11:36:35.626Z,22.64
2023-04-07T11:39:03.346Z,24.05
2023-04-07T11:41:33.050Z,23.17
2023-04-07T11:44:11.475Z,22.76
2023-04-07T11:46:54.899Z,25.34
2023-04-07T11:49:23.067Z,24.10
2023-04-07T11:52:01.425Z,24.27
2023-04-07T11:54:38.775Z,22.74
2023-04-07T11:57:05.527Z,21.56
2023-04-07T11:59:32.948Z,22.56
2023-04-07T12:02:00.239Z,27.50
2023-04-07T12:04:27.118Z,26.60
2023-04-07T12:06:54.400Z,25.62
2023-04-07T12:09:36.477Z,25.84
2023-04-07T12:12:06.368Z,25.71
2023-04-07T12:14:33.596Z,25.25
2023-04-07T12:17:03.536Z,25.12
2023-04-07T12:19:33.640Z,24.16
2023-04-07T12:22:00.750Z,23.50
2023-04-07T12:24:29.287Z,20.76
2023-04-07T12:26:56.671Z,19.82
2023-04-07T12:29:23.418Z,23.67
2023-04-07T12:31:51.290Z,22.84
2023-04-07T12:34:19.038Z,21.33
2023-04-07T12:36:45.811Z,22.83
2023-04-07T12:39:12.689Z,24.95
2023-04-07T12:41:40.089Z,25.36
2023-04-07T12:44:07.282Z,23.71
2023-04-07T12:46:34.399Z,23.46
2023-04-07T12:49:01.241Z,23.21
2023-04-07T12:51:29.407Z,24.65
2023-04-07T12:53:57.034Z,24.43
2023-04-07T12:56:24.271Z,24.16
2023-04-07T12:58:51.282Z,24.64
2023-04-07T13:01:18.162Z,25.96
2023-04-07T13:03:45.940Z,23.52
2023-04-07T13:06:12.819Z,24.49
2023-04-07T13:08:40.501Z,24.35
2023-04-07T13:11:07.585Z,23.87
2023-04-07T13:13:34.574Z,23.39
2023-04-07T13:16:01.359Z,23.22
2023-04-07T13:18:28.238Z,25.07
2023-04-07T13:21:22.123Z,24.05
2023-04-07T13:23:43.706Z,24.62
2023-04-07T13:26:11.556Z,25.04
2023-04-07T13:28:39.040Z,25.21
2023-04-07T13:31:05.915Z,26.37
2023-04-07T13:33:32.668Z,25.56
2023-04-07T13:35:59.706Z,26.29
2023-04-07T13:38:26.712Z,25.17
2023-04-07T13:40:53.772Z,24.68
2023-04-07T13:43:20.608Z,24.47
2023-04-07T13:45:48.700Z,25.65
2023-04-07T13:48:16.123Z,24.98
2023-04-07T13:50:42.962Z,25.75
2023-04-07T13:53:09.993Z,25.14
2023-04-07T13:55:36.912Z,24.76
2023-04-07T13:58:03.738Z,25.18
2023-04-07T14:00:31.405Z,24.42
2023-04-07T14:02:58.412Z,24.13
2023-04-07T14:05:25.610Z,23.26
2023-04-07T14:07:52.504Z,24.35
2023-04-07T14:10:19.405Z,23.47
2023-04-07T14:12:47.161Z,23.55
2023-04-07T14:15:14.193Z,24.36
2023-04-07T14:17:41.667Z,25.17
2023-04-07T14:20:09.479Z,27.58
2023-04-07T14:22:36.270Z,25.84
2023-04-07T14:25:04.002Z,26.11
2023-04-07T14:27:31.568Z,28.10
2023-04-07T14:30:00.306Z,25.33
2023-04-07T14:32:30.100Z,25.21
2023-04-07T14:34:59.245Z,27.71
2023-04-07T14:37:28.574Z,27.35
2023-04-07T14:40:02.022Z,26.23
2023-04-07T14:42:31.727Z,25.70
2023-04-07T14:45:00.358Z,26.69
2023-04-07T14:47:27.643Z,26.34
2023-04-07T14:49:54.668Z,28.34
2023-04-07T14:52:24.571Z,26.69
2023-04-07T14:54:51.402Z,25.33
2023-04-07T14:57:18.138Z,27.76
2023-04-07T14:59:45.518Z,28.00
2023-04-07T15:02:12.893Z,28.50
2023-04-07T15:04:39.919Z,26.94
2023-04-07T15:07:06.881Z,28.09
2023-04-07T15:09:33.696Z,29.02
2023-04-07T15:12:01.847Z,29.47
2023-04-07T15:14:28.698Z,27.86
2023-04-07T15:16:55.577Z,27.85
2023-04-07T15:19:22.392Z,28.91
2023-04-07T15:21:49.325Z,28.31
2023-04-07T15:24:16.987Z,28.75
2023-04-07T15:26:44.003Z,28.58
2023-04-07T15:29:11.103Z,28.84
2023-04-07T15:31:39.107Z,28.51
2023-04-07T15:34:06.331Z,29.48
2023-04-07T15:36:33.172Z,28.43
2023-04-07T15:39:04.558Z,28.04
2023-04-07T15:41:32.669Z,28.43
2023-04-07T15:44:01.152Z,29.45
2023-04-07T15:46:28.475Z,27.97
2023-04-07T15:48:55.711Z,27.58
2023-04-07T15:51:22.705Z,29.75
2023-04-07T15:53:49.864Z,29.95
2023-04-07T15:56:17.533Z,28.35
2023-04-07T15:58:46.246Z,27.96
2023-04-07T16:01:13.197Z,28.88
2023-04-07T16:03:40.197Z,30.07
2023-04-07T16:06:07.080Z,27.66
2023-04-07T16:08:33.908Z,29.21
2023-04-07T16:11:01.237Z,28.63
2023-04-07T16:13:27.997Z,28.25
2023-04-07T16:15:58.369Z,27.26
2023-04-07T16:18:25.335Z,27.30
2023-04-07T16:20:52.169Z,28.09
2023-04-07T16:23:19.018Z,26.70
2023-04-07T16:25:46.451Z,27.57
2023-04-07T16:28:13.288Z,28.29
2023-04-07T16:30:40.291Z,28.33
2023-04-07T16:33:07.202Z,27.53
2023-04-07T16:35:34.263Z,27.51
2023-04-07T16:38:06.238Z,27.54
2023-04-07T16:40:33.468Z,28.51
2023-04-07T16:43:00.296Z,27.72
2023-04-07T16:45:27.087Z,30.09
2023-04-07T16:47:53.890Z,28.40
2023-04-07T16:50:21.586Z,27.55
2023-04-07T16:52:48.357Z,27.38
2023-04-07T16:55:15.218Z,28.96
2023-04-07T16:57:42.035Z,28.29
2023-04-07T17:00:09.429Z,29.79
2023-04-07T17:02:36.634Z,29.94
2023-04-07T17:05:03.838Z,28.88
2023-04-07T17:07:30.614Z,29.71
2023-04-07T17:09:58.230Z,28.90
2023-04-07T17:12:25.039Z,28.35
2023-04-07T17:14:51.903Z,29.45
2023-04-07T17:17:18.650Z,29.95
2023-04-07T17:19:46.950Z,29.42
2023-04-07T17:22:13.840Z,29.86
2023-04-07T17:24:41.021Z,30.82
2023-04-07T17:27:07.845Z,30.92
2023-04-07T17:29:34.618Z,29.94
2023-04-07T17:32:01.947Z,28.81
2023-04-07T17:34:28.796Z,30.05
2023-04-07T17:36:55.916Z,30.19
2023-04-07T17:39:22.732Z,29.91
2023-04-07T17:41:49.585Z,30.57
2023-04-07T17:44:17.022Z,30.28
2023-04-07T17:46:44.094Z,30.33
2023-04-07T17:49:11.137Z,30.65
2023-04-07T17:51:37.969Z,32.78
2023-04-07T17:54:04.785Z,31.31
2023-04-07T17:56:32.187Z,32.10
2023-04-07T17:58:58.981Z,34.03
2023-04-07T18:01:26.485Z,33.51
2023-04-07T18:03:53.979Z,35.00
2023-04-07T18:06:22.105Z,35.01
2023-04-07T18:08:49.325Z,34.85
2023-04-07T18:11:17.475Z,35.18
2023-04-07T18:13:44.922Z,34.56
2023-04-07T18:16:19.924Z,36.96
2023-04-07T18:18:48.943Z,37.65
2023-04-07T18:21:15.760Z,36.29
2023-04-07T18:23:42.798Z,37.28
2023-04-07T18:26:09.892Z,35.86
2023-04-07T18:28:37.074Z,39.64
2023-04-07T18:31:06.607Z,37.17
2023-04-07T18:33:35.360Z,34.82
2023-04-07T18:36:06.806Z,36.09
2023-04-07T18:38:40.592Z,38.16
2023-04-07T18:41:07.876Z,36.32
2023-04-07T18:43:34.804Z,35.90
2023-04-07T18:46:01.617Z,35.37
2023-04-07T18:48:29.429Z,36.11
2023-04-07T18:50:56.728Z,33.92
2023-04-07T18:53:25.320Z,38.57
2023-04-07T18:55:52.618Z,37.04
2023-04-07T18:58:20.150Z,37.65
2023-04-07T19:00:49.593Z,38.23
2023-04-07T19:03:16.860Z,39.57
2023-04-07T19:05:47.645Z,38.25
2023-04-07T19:08:15.915Z,40.38
2023-04-07T19:10:43.379Z,40.01
2023-04-07T19:13:10.339Z,39.51
2023-04-07T19:15:39.461Z,36.22
2023-04-07T19:18:08.325Z,35.29
2023-04-07T19:20:35.565Z,35.02
2023-04-07T19:23:03.408Z,36.51
2023-04-07T19:25:31.389Z,35.62
2023-04-07T19:27:59.038Z,34.48
2023-04-07T19:30:25.986Z,37.16
2023-04-07T19:32:53.474Z,38.63
2023-04-07T19:35:20.546Z,40.36
2023-04-07T19:37:48.490Z,39.06
2023-04-07T19:40:15.877Z,37.01
2023-04-07T19:42:42.901Z,35.91
2023-04-07T19:45:10.569Z,35.62
2023-04-07T19:47:38.694Z,36.51
2023-04-07T19:50:06.218Z,34.87
2023-04-07T19:52:33.489Z,34.49
2023-04-07T19:55:01.690Z,36.20
2023-04-07T19:57:29.139Z,37.34
2023-04-07T19:59:56.198Z,37.53
2023-04-07T20:02:23.767Z,37.81
2023-04-07T20:04:51.153Z,41.05
2023-04-07T20:07:18.367Z,40.26
2023-04-07T20:09:45.260Z,34.67
2023-04-07T20:12:12.412Z,39.72
2023-04-07T20:14:39.273Z,38.61
2023-04-07T20:17:06.132Z,37.25
2023-04-07T20:19:33.760Z,35.96
2023-04-07T20:22:00.751Z,33.93
2023-04-07T20:24:28.562Z,34.21
2023-04-07T20:26:56.040Z,34.83
2023-04-07T20:29:22.850Z,35.89
2023-04-07T20:31:50.265Z,36.23
2023-04-07T20:34:17.003Z,34.53
2023-04-07T20:36:44.086Z,36.42
2023-04-07T20:39:11.160Z,40.65
2023-04-07T20:41:38.750Z,35.17
2023-04-07T20:44:05.588Z,35.98
2023-04-07T20:46:33.967Z,37.98
2023-04-07T20:49:00.999Z,38.98
2023-04-07T20:51:29.057Z,37.43
2023-04-07T20:53:55.874Z,37.43
2023-04-07T20:56:23.822Z,37.48
2023-04-07T20:58:50.949Z,35.61
2023-04-07T21:01:18.045Z,36.63
2023-04-07T21:03:46.074Z,36.09
2023-04-07T21:06:13.076Z,36.39
2023-04-07T21:08:39.969Z,36.79
2023-04-07T21:11:06.724Z,37.47
2023-04-07T21:13:34.095Z,39.84
2023-04-07T21:16:03.807Z,37.85
2023-04-07T21:18:30.800Z,41.85
2023-04-07T21:21:02.183Z,36.71
2023-04-07T21:23:31.273Z,37.89
2023-04-07T21:26:02.879Z,39.17
2023-04-07T21:28:29.698Z,39.30
2023-04-07T21:30:56.932Z,35.79
2023-04-07T21:33:24.569Z,36.50
2023-04-07T21:35:52.223Z,38.13
2023-04-07T21:38:19.340Z,38.97
2023-04-07T21:40:46.335Z,36.21
2023-04-07T21:43:13.449Z,36.95
2023-04-07T21:45:40.559Z,37.83
2023-04-07T21:48:07.432Z,36.48
2023-04-07T21:50:35.912Z,35.34
2023-04-07T21:53:02.799Z,37.79
2023-04-07T21:55:30.116Z,37.25
2023-04-07T21:57:57.588Z,36.76
2023-04-07T22:00:24.657Z,36.32
2023-04-07T22:02:51.712Z,36.70
2023-04-07T22:05:19.887Z,36.51
2023-04-07T22:07:48.265Z,36.09
2023-04-07T22:10:15.677Z,36.93
2023-04-07T22:12:42.537Z,36.00
2023-04-07T22:15:11.046Z,36.98
2023-04-07T22:17:39.987Z,37.22
2023-04-07T22:20:09.598Z,37.34
2023-04-07T22:22:36.869Z,36.00
2023-04-07T22:25:03.900Z,39.46
2023-04-07T22:27:31.500Z,37.90
2023-04-07T22:29:58.578Z,41.04
2023-04-07T22:32:25.419Z,38.51
2023-04-07T22:34:52.322Z,36.66
2023-04-07T22:37:20.071Z,37.98
2023-04-07T22:39:47.048Z,36.87
2023-04-07T22:42:13.908Z,37.05
2023-04-07T22:44:41.061Z,36.84
2023-04-07T22:47:07.949Z,38.59
2023-04-07T22:49:35.427Z,37.68
2023-04-07T22:52:03.228Z,39.14
2023-04-07T22:54:30.716Z,36.43
2023-04-07T22:56:57.623Z,42.33
2023-04-07T22:59:24.696Z,39.78
2023-04-07T23:01:51.916Z,38.44
2023-04-07T23:04:18.764Z,38.47
2023-04-07T23:06:45.788Z,37.79
2023-04-07T23:09:12.704Z,38.17
2023-04-07T23:11:39.949Z,43.17
2023-04-07T23:14:06.979Z,39.60
2023-04-07T23:16:35.323Z,37.71
2023-04-07T23:19:02.196Z,38.54
2023-04-07T23:21:31.326Z,40.64
2023-04-07T23:23:58.712Z,39.13
2023-04-07T23:26:26.855Z,39.88
2023-04-07T23:28:53.765Z,39.61
2023-04-07T23:31:21.631Z,38.20
2023-04-07T23:33:48.461Z,38.91
2023-04-07T23:36:15.595Z,41.96
2023-04-07T23:38:42.464Z,40.88
2023-04-07T23:41:09.324Z,42.22
2023-04-07T23:43:36.863Z,38.39
2023-04-07T23:46:03.784Z,37.71
2023-04-07T23:48:36.956Z,39.04
2023-04-07T23:51:03.840Z,38.56
2023-04-07T23:53:30.963Z,40.50
2023-04-07T23:55:57.846Z,41.12
2023-04-07T23:58:24.685Z,41.17
